sensor_id;sensor_type;location;lat;lon;timestamp;temperature;humidity
11079;DHT22;5592;49.234;7.268;2022-09-09T00:01:09;13.50;99.90
11079;DHT22;5592;49.234;7.268;2022-09-09T00:04:02;13.50;99.90
11079;DHT22;5592;49.234;7.268;2022-09-09T00:06:55;13.50;99.90
11079;DHT22;5592;49.234;7.268;2022-09-09T00:09:27;13.50;99.90
11079;DHT22;5592;49.234;7.268;2022-09-09T00:14:37;13.60;99.90
11079;DHT22;5592;49.234;7.268;2022-09-09T00:17:12;13.70;99.90
11079;DHT22;5592;49.234;7.268;2022-09-09T00:22:23;13.60;99.90
11079;DHT22;5592;49.234;7.268;2022-09-09T00:25:16;13.60;99.90
11079;DHT22;5592;49.234;7.268;2022-09-09T00:27:49;13.70;99.90
11079;DHT22;5592;49.234;7.268;2022-09-09T00:30:24;13.80;99.90
11079;DHT22;5592;49.234;7.268;2022-09-09T00:32:58;13.90;99.90
11079;DHT22;5592;49.234;7.268;2022-09-09T00:35:29;13.90;99.90
11079;DHT22;5592;49.234;7.268;2022-09-09T00:38:00;14.00;99.90
11079;DHT22;5592;49.234;7.268;2022-09-09T00:40:33;14.10;99.90
11079;DHT22;5592;49.234;7.268;2022-09-09T00:43:15;14.20;99.90
11079;DHT22;5592;49.234;7.268;2022-09-09T00:51:28;14.20;99.90
11079;DHT22;5592;49.234;7.268;2022-09-09T00:57:03;14.30;99.90
11079;DHT22;5592;49.234;7.268;2022-09-09T00:59:52;14.20;99.90
11079;DHT22;5592;49.234;7.268;2022-09-09T01:02:43;14.20;99.90
11079;DHT22;5592;49.234;7.268;2022-09-09T01:05:20;14.30;99.90
11079;DHT22;5592;49.234;7.268;2022-09-09T01:07:49;14.20;99.90
11079;DHT22;5592;49.234;7.268;2022-09-09T01:13:15;14.10;99.90
11079;DHT22;5592;49.234;7.268;2022-09-09T01:15:44;14.00;99.90
11079;DHT22;5592;49.234;7.268;2022-09-09T01:18:14;13.90;99.90
11079;DHT22;5592;49.234;7.268;2022-09-09T01:26:42;13.80;99.90
11079;DHT22;5592;49.234;7.268;2022-09-09T01:29:10;13.80;99.90
11079;DHT22;5592;49.234;7.268;2022-09-09T01:31:39;13.70;99.90
11079;DHT22;5592;49.234;7.268;2022-09-09T01:34:14;13.60;99.90
11079;DHT22;5592;49.234;7.268;2022-09-09T01:36:44;13.50;99.90
11079;DHT22;5592;49.234;7.268;2022-09-09T01:39:11;13.60;99.90
11079;DHT22;5592;49.234;7.268;2022-09-09T01:41:38;13.60;99.90
11079;DHT22;5592;49.234;7.268;2022-09-09T01:44:04;13.70;99.90
11079;DHT22;5592;49.234;7.268;2022-09-09T01:46:30;13.90;99.90
11079;DHT22;5592;49.234;7.268;2022-09-09T01:48:56;14.00;99.90
11079;DHT22;5592;49.234;7.268;2022-09-09T01:51:22;14.10;99.90
11079;DHT22;5592;49.234;7.268;2022-09-09T01:53:48;14.20;99.90
11079;DHT22;5592;49.234;7.268;2022-09-09T02:01:35;14.40;99.90
11079;DHT22;5592;49.234;7.268;2022-09-09T02:10:05;14.30;99.90
11079;DHT22;5592;49.234;7.268;2022-09-09T02:12:34;14.20;99.90
11079;DHT22;5592;49.234;7.268;2022-09-09T02:15:07;14.10;99.90
11079;DHT22;5592;49.234;7.268;2022-09-09T02:17:36;14.00;99.90
11079;DHT22;5592;49.234;7.268;2022-09-09T02:20:12;13.90;99.90
11079;DHT22;5592;49.234;7.268;2022-09-09T02:22:41;13.90;99.90
11079;DHT22;5592;49.234;7.268;2022-09-09T02:25:10;13.80;99.90
11079;DHT22;5592;49.234;7.268;2022-09-09T02:27:40;13.90;99.90
11079;DHT22;5592;49.234;7.268;2022-09-09T02:30:07;13.80;99.90
11079;DHT22;5592;49.234;7.268;2022-09-09T02:32:35;13.70;99.90
11079;DHT22;5592;49.234;7.268;2022-09-09T02:35:07;13.70;99.90
11079;DHT22;5592;49.234;7.268;2022-09-09T02:37:37;13.60;99.90
11079;DHT22;5592;49.234;7.268;2022-09-09T02:40:08;13.60;99.90
11079;DHT22;5592;49.234;7.268;2022-09-09T02:42:41;13.50;99.90
11079;DHT22;5592;49.234;7.268;2022-09-09T02:45:08;13.50;99.90
11079;DHT22;5592;49.234;7.268;2022-09-09T02:48:09;13.60;99.90
11079;DHT22;5592;49.234;7.268;2022-09-09T02:53:43;13.40;99.90
11079;DHT22;5592;49.234;7.268;2022-09-09T02:56:16;13.40;99.90
11079;DHT22;5592;49.234;7.268;2022-09-09T02:58:42;13.30;99.90
11079;DHT22;5592;49.234;7.268;2022-09-09T03:01:08;13.20;99.90
11079;DHT22;5592;49.234;7.268;2022-09-09T03:03:34;13.10;99.90
11079;DHT22;5592;49.234;7.268;2022-09-09T03:06:00;13.20;99.90
11079;DHT22;5592;49.234;7.268;2022-09-09T03:08:26;13.20;99.90
11079;DHT22;5592;49.234;7.268;2022-09-09T03:10:54;13.30;99.90
11079;DHT22;5592;49.234;7.268;2022-09-09T03:13:21;13.50;99.90
11079;DHT22;5592;49.234;7.268;2022-09-09T03:15:47;13.50;99.90
11079;DHT22;5592;49.234;7.268;2022-09-09T03:18:14;13.60;99.90
11079;DHT22;5592;49.234;7.268;2022-09-09T03:20:39;13.70;99.90
11079;DHT22;5592;49.234;7.268;2022-09-09T03:23:07;13.80;99.90
11079;DHT22;5592;49.234;7.268;2022-09-09T03:25:33;13.80;99.90
11079;DHT22;5592;49.234;7.268;2022-09-09T03:27:58;13.80;99.90
11079;DHT22;5592;49.234;7.268;2022-09-09T03:30:26;13.80;99.90
11079;DHT22;5592;49.234;7.268;2022-09-09T03:32:52;13.80;99.90
11079;DHT22;5592;49.234;7.268;2022-09-09T03:35:18;13.80;99.90
11079;DHT22;5592;49.234;7.268;2022-09-09T03:37:44;13.80;99.90
11079;DHT22;5592;49.234;7.268;2022-09-09T03:40:10;13.80;99.90
11079;DHT22;5592;49.234;7.268;2022-09-09T03:42:36;13.70;99.90
11079;DHT22;5592;49.234;7.268;2022-09-09T03:45:12;13.60;99.90
11079;DHT22;5592;49.234;7.268;2022-09-09T03:47:37;13.60;99.90
11079;DHT22;5592;49.234;7.268;2022-09-09T03:50:04;13.60;99.90
11079;DHT22;5592;49.234;7.268;2022-09-09T03:52:39;13.60;99.90
11079;DHT22;5592;49.234;7.268;2022-09-09T03:55:07;13.60;99.90
11079;DHT22;5592;49.234;7.268;2022-09-09T03:57:34;13.50;99.90
11079;DHT22;5592;49.234;7.268;2022-09-09T04:00:05;13.60;99.90
11079;DHT22;5592;49.234;7.268;2022-09-09T04:02:32;13.60;99.90
11079;DHT22;5592;49.234;7.268;2022-09-09T04:04:57;13.60;99.90
11079;DHT22;5592;49.234;7.268;2022-09-09T04:07:23;13.70;99.90
11079;DHT22;5592;49.234;7.268;2022-09-09T04:09:49;13.70;99.90
11079;DHT22;5592;49.234;7.268;2022-09-09T04:12:14;13.70;99.90
11079;DHT22;5592;49.234;7.268;2022-09-09T04:14:40;13.70;99.90
11079;DHT22;5592;49.234;7.268;2022-09-09T04:17:06;13.80;99.90
11079;DHT22;5592;49.234;7.268;2022-09-09T04:19:32;13.80;99.90
11079;DHT22;5592;49.234;7.268;2022-09-09T04:21:58;13.80;99.90
11079;DHT22;5592;49.234;7.268;2022-09-09T04:24:24;13.80;99.90
11079;DHT22;5592;49.234;7.268;2022-09-09T04:26:52;13.70;99.90
11079;DHT22;5592;49.234;7.268;2022-09-09T04:29:18;13.70;99.90
11079;DHT22;5592;49.234;7.268;2022-09-09T04:31:43;13.60;99.90
11079;DHT22;5592;49.234;7.268;2022-09-09T04:34:09;13.60;99.90
11079;DHT22;5592;49.234;7.268;2022-09-09T04:36:35;13.60;99.90
11079;DHT22;5592;49.234;7.268;2022-09-09T04:39:02;13.60;99.90
11079;DHT22;5592;49.234;7.268;2022-09-09T04:41:27;13.70;99.90
11079;DHT22;5592;49.234;7.268;2022-09-09T04:43:53;13.70;99.90
11079;DHT22;5592;49.234;7.268;2022-09-09T04:46:20;13.80;99.90
11079;DHT22;5592;49.234;7.268;2022-09-09T04:48:46;13.90;99.90
11079;DHT22;5592;49.234;7.268;2022-09-09T04:51:13;14.00;99.90
11079;DHT22;5592;49.234;7.268;2022-09-09T04:53:39;14.10;99.90
11079;DHT22;5592;49.234;7.268;2022-09-09T04:56:06;14.10;99.90
11079;DHT22;5592;49.234;7.268;2022-09-09T04:58:33;14.20;99.90
11079;DHT22;5592;49.234;7.268;2022-09-09T05:01:10;14.30;99.90
11079;DHT22;5592;49.234;7.268;2022-09-09T05:03:36;14.30;99.90
11079;DHT22;5592;49.234;7.268;2022-09-09T05:06:10;14.40;99.90
11079;DHT22;5592;49.234;7.268;2022-09-09T05:08:37;14.40;99.90
11079;DHT22;5592;49.234;7.268;2022-09-09T05:13:39;14.40;99.90
11079;DHT22;5592;49.234;7.268;2022-09-09T05:16:05;14.50;99.90
11079;DHT22;5592;49.234;7.268;2022-09-09T05:18:31;14.50;99.90
11079;DHT22;5592;49.234;7.268;2022-09-09T05:20:59;14.50;99.90
11079;DHT22;5592;49.234;7.268;2022-09-09T05:23:25;14.60;99.90
11079;DHT22;5592;49.234;7.268;2022-09-09T05:25:58;14.60;99.90
11079;DHT22;5592;49.234;7.268;2022-09-09T05:28:25;14.70;99.90
11079;DHT22;5592;49.234;7.268;2022-09-09T05:30:58;14.80;99.90
11079;DHT22;5592;49.234;7.268;2022-09-09T05:33:25;14.90;99.90
11079;DHT22;5592;49.234;7.268;2022-09-09T05:36:02;14.90;99.90
11079;DHT22;5592;49.234;7.268;2022-09-09T05:38:30;14.90;99.90
11079;DHT22;5592;49.234;7.268;2022-09-09T05:40:56;14.90;99.90
11079;DHT22;5592;49.234;7.268;2022-09-09T05:43:25;14.90;99.90
11079;DHT22;5592;49.234;7.268;2022-09-09T05:46:05;15.00;99.90
11079;DHT22;5592;49.234;7.268;2022-09-09T05:48:32;15.00;99.90
11079;DHT22;5592;49.234;7.268;2022-09-09T05:51:01;15.10;99.90
11079;DHT22;5592;49.234;7.268;2022-09-09T05:53:28;15.20;99.90
11079;DHT22;5592;49.234;7.268;2022-09-09T05:56:05;15.20;99.90
11079;DHT22;5592;49.234;7.268;2022-09-09T05:58:34;15.20;99.90
11079;DHT22;5592;49.234;7.268;2022-09-09T06:01:07;15.20;99.90
11079;DHT22;5592;49.234;7.268;2022-09-09T06:03:37;15.30;99.90
11079;DHT22;5592;49.234;7.268;2022-09-09T06:06:05;15.30;99.90
11079;DHT22;5592;49.234;7.268;2022-09-09T06:08:36;15.40;99.90
11079;DHT22;5592;49.234;7.268;2022-09-09T06:11:08;15.50;99.90
11079;DHT22;5592;49.234;7.268;2022-09-09T06:13:35;15.70;99.90
11079;DHT22;5592;49.234;7.268;2022-09-09T06:16:03;15.70;99.90
11079;DHT22;5592;49.234;7.268;2022-09-09T06:18:29;15.80;99.90
11079;DHT22;5592;49.234;7.268;2022-09-09T06:21:03;15.90;99.90
11079;DHT22;5592;49.234;7.268;2022-09-09T06:23:30;16.00;99.90
11079;DHT22;5592;49.234;7.268;2022-09-09T06:26:07;16.10;99.90
11079;DHT22;5592;49.234;7.268;2022-09-09T06:28:34;16.10;99.90
11079;DHT22;5592;49.234;7.268;2022-09-09T06:31:01;16.20;99.90
11079;DHT22;5592;49.234;7.268;2022-09-09T06:33:31;16.20;99.90
11079;DHT22;5592;49.234;7.268;2022-09-09T06:35:57;16.20;99.90
11079;DHT22;5592;49.234;7.268;2022-09-09T06:38:23;16.10;99.90
11079;DHT22;5592;49.234;7.268;2022-09-09T06:40:53;16.20;99.90
11079;DHT22;5592;49.234;7.268;2022-09-09T06:43:20;16.30;99.90
11079;DHT22;5592;49.234;7.268;2022-09-09T06:45:59;16.30;99.90
11079;DHT22;5592;49.234;7.268;2022-09-09T06:48:26;16.30;99.90
11079;DHT22;5592;49.234;7.268;2022-09-09T06:51:16;16.30;99.90
11079;DHT22;5592;49.234;7.268;2022-09-09T06:53:44;16.40;99.90
11079;DHT22;5592;49.234;7.268;2022-09-09T06:58:42;16.40;99.90
11079;DHT22;5592;49.234;7.268;2022-09-09T07:01:10;16.40;99.90
11079;DHT22;5592;49.234;7.268;2022-09-09T07:03:38;16.50;99.90
11079;DHT22;5592;49.234;7.268;2022-09-09T07:06:05;16.50;99.90
11079;DHT22;5592;49.234;7.268;2022-09-09T07:08:33;16.50;99.90
11079;DHT22;5592;49.234;7.268;2022-09-09T07:11:04;16.60;99.90
11079;DHT22;5592;49.234;7.268;2022-09-09T07:13:30;16.70;99.90
11079;DHT22;5592;49.234;7.268;2022-09-09T07:16:07;16.70;99.90
11079;DHT22;5592;49.234;7.268;2022-09-09T07:18:33;16.70;99.90
11079;DHT22;5592;49.234;7.268;2022-09-09T07:21:00;16.70;99.90
11079;DHT22;5592;49.234;7.268;2022-09-09T07:23:27;16.80;99.90
11079;DHT22;5592;49.234;7.268;2022-09-09T07:25:53;17.00;99.90
11079;DHT22;5592;49.234;7.268;2022-09-09T07:28:20;17.20;99.90
11079;DHT22;5592;49.234;7.268;2022-09-09T07:30:57;17.20;99.90
11079;DHT22;5592;49.234;7.268;2022-09-09T07:33:23;17.40;99.90
11079;DHT22;5592;49.234;7.268;2022-09-09T07:35:50;17.50;99.90
11079;DHT22;5592;49.234;7.268;2022-09-09T07:38:16;17.60;99.90
11079;DHT22;5592;49.234;7.268;2022-09-09T07:40:42;17.70;99.90
11079;DHT22;5592;49.234;7.268;2022-09-09T07:43:07;17.90;99.90
11079;DHT22;5592;49.234;7.268;2022-09-09T07:45:34;18.00;99.90
11079;DHT22;5592;49.234;7.268;2022-09-09T07:48:01;18.10;99.90
11079;DHT22;5592;49.234;7.268;2022-09-09T07:50:27;18.30;99.90
11079;DHT22;5592;49.234;7.268;2022-09-09T07:52:53;18.30;99.90
11079;DHT22;5592;49.234;7.268;2022-09-09T07:55:20;18.30;99.90
11079;DHT22;5592;49.234;7.268;2022-09-09T07:57:46;18.20;99.90
11079;DHT22;5592;49.234;7.268;2022-09-09T08:00:12;18.20;99.90
11079;DHT22;5592;49.234;7.268;2022-09-09T08:02:40;18.20;99.90
11079;DHT22;5592;49.234;7.268;2022-09-09T08:05:06;18.10;99.90
11079;DHT22;5592;49.234;7.268;2022-09-09T08:07:34;17.90;99.90
11079;DHT22;5592;49.234;7.268;2022-09-09T08:10:00;18.10;99.90
11079;DHT22;5592;49.234;7.268;2022-09-09T08:12:26;18.10;99.90
11079;DHT22;5592;49.234;7.268;2022-09-09T08:14:51;18.20;99.90
11079;DHT22;5592;49.234;7.268;2022-09-09T08:17:17;18.30;99.90
11079;DHT22;5592;49.234;7.268;2022-09-09T08:19:43;18.60;99.90
11079;DHT22;5592;49.234;7.268;2022-09-09T08:22:09;18.90;99.90
11079;DHT22;5592;49.234;7.268;2022-09-09T08:24:35;19.10;99.90
11079;DHT22;5592;49.234;7.268;2022-09-09T08:27:01;19.40;99.90
11079;DHT22;5592;49.234;7.268;2022-09-09T08:29:26;20.00;99.90
11079;DHT22;5592;49.234;7.268;2022-09-09T08:31:56;20.30;99.90
11079;DHT22;5592;49.234;7.268;2022-09-09T08:34:23;20.50;99.90
11079;DHT22;5592;49.234;7.268;2022-09-09T08:36:50;20.40;99.90
11079;DHT22;5592;49.234;7.268;2022-09-09T08:39:18;20.30;99.90
11079;DHT22;5592;49.234;7.268;2022-09-09T08:44:22;19.90;99.90
11079;DHT22;5592;49.234;7.268;2022-09-09T08:52:28;20.50;99.90
11079;DHT22;5592;49.234;7.268;2022-09-09T08:54:58;20.80;99.90
11079;DHT22;5592;49.234;7.268;2022-09-09T08:57:28;20.70;99.90
11079;DHT22;5592;49.234;7.268;2022-09-09T08:59:57;20.60;99.90
11079;DHT22;5592;49.234;7.268;2022-09-09T09:05:19;20.70;99.90
11079;DHT22;5592;49.234;7.268;2022-09-09T09:10:51;20.10;99.90
11079;DHT22;5592;49.234;7.268;2022-09-09T09:13:30;19.80;99.90
11079;DHT22;5592;49.234;7.268;2022-09-09T09:18:52;19.50;99.90
11079;DHT22;5592;49.234;7.268;2022-09-09T09:21:34;19.70;99.90
11079;DHT22;5592;49.234;7.268;2022-09-09T09:24:01;20.00;99.90
11079;DHT22;5592;49.234;7.268;2022-09-09T09:26:33;20.30;99.90
11079;DHT22;5592;49.234;7.268;2022-09-09T09:29:14;20.30;99.90
11079;DHT22;5592;49.234;7.268;2022-09-09T09:32:02;20.40;99.90
11079;DHT22;5592;49.234;7.268;2022-09-09T09:34:29;20.50;99.90
11079;DHT22;5592;49.234;7.268;2022-09-09T09:36:59;20.50;99.90
11079;DHT22;5592;49.234;7.268;2022-09-09T09:39:35;20.60;99.90
11079;DHT22;5592;49.234;7.268;2022-09-09T09:42:12;20.30;99.90
11079;DHT22;5592;49.234;7.268;2022-09-09T09:44:43;20.00;99.90
11079;DHT22;5592;49.234;7.268;2022-09-09T09:47:20;20.00;99.90
11079;DHT22;5592;49.234;7.268;2022-09-09T09:49:59;19.90;99.90
11079;DHT22;5592;49.234;7.268;2022-09-09T09:52:31;19.80;99.90
11079;DHT22;5592;49.234;7.268;2022-09-09T09:54:58;19.80;99.90
11079;DHT22;5592;49.234;7.268;2022-09-09T09:57:29;19.80;99.90
11079;DHT22;5592;49.234;7.268;2022-09-09T10:02:39;19.70;99.90
11079;DHT22;5592;49.234;7.268;2022-09-09T10:05:23;19.30;99.90
11079;DHT22;5592;49.234;7.268;2022-09-09T10:08:11;19.00;99.90
11079;DHT22;5592;49.234;7.268;2022-09-09T10:13:47;18.50;99.90
11079;DHT22;5592;49.234;7.268;2022-09-09T10:27:04;19.70;99.90
11079;DHT22;5592;49.234;7.268;2022-09-09T10:43:39;24.90;99.90
11079;DHT22;5592;49.234;7.268;2022-09-09T10:52:30;25.40;99.90
11079;DHT22;5592;49.234;7.268;2022-09-09T10:55:10;25.10;99.90
11079;DHT22;5592;49.234;7.268;2022-09-09T10:57:46;25.10;99.90
11079;DHT22;5592;49.234;7.268;2022-09-09T11:00:20;24.60;99.90
11079;DHT22;5592;49.234;7.268;2022-09-09T11:02:56;24.80;99.90
11079;DHT22;5592;49.234;7.268;2022-09-09T11:05:40;24.90;99.90
11079;DHT22;5592;49.234;7.268;2022-09-09T11:08:20;24.20;99.90
11079;DHT22;5592;49.234;7.268;2022-09-09T11:13:56;22.80;99.90
11079;DHT22;5592;49.234;7.268;2022-09-09T11:16:36;22.90;99.90
11079;DHT22;5592;49.234;7.268;2022-09-09T11:21:48;22.40;99.90
11079;DHT22;5592;49.234;7.268;2022-09-09T11:24:29;22.10;99.90
11079;DHT22;5592;49.234;7.268;2022-09-09T11:27:09;21.50;99.90
11079;DHT22;5592;49.234;7.268;2022-09-09T11:32:26;20.00;99.90
11079;DHT22;5592;49.234;7.268;2022-09-09T11:40:24;19.20;99.90
11079;DHT22;5592;49.234;7.268;2022-09-09T11:45:38;19.00;99.90
11079;DHT22;5592;49.234;7.268;2022-09-09T11:48:05;18.70;99.90
11079;DHT22;5592;49.234;7.268;2022-09-09T11:50:37;18.30;99.90
11079;DHT22;5592;49.234;7.268;2022-09-09T11:53:22;18.10;99.90
11079;DHT22;5592;49.234;7.268;2022-09-09T11:58:37;18.00;99.90
11079;DHT22;5592;49.234;7.268;2022-09-09T12:01:14;18.40;99.90
11079;DHT22;5592;49.234;7.268;2022-09-09T12:06:26;19.10;99.90
11079;DHT22;5592;49.234;7.268;2022-09-09T12:09:05;19.40;99.90
11079;DHT22;5592;49.234;7.268;2022-09-09T12:11:32;19.60;99.90
11079;DHT22;5592;49.234;7.268;2022-09-09T12:13:59;19.70;99.90
11079;DHT22;5592;49.234;7.268;2022-09-09T12:16:37;19.60;99.90
11079;DHT22;5592;49.234;7.268;2022-09-09T12:19:22;19.60;99.90
11079;DHT22;5592;49.234;7.268;2022-09-09T12:22:06;19.40;99.90
11079;DHT22;5592;49.234;7.268;2022-09-09T12:24:53;19.30;99.90
11079;DHT22;5592;49.234;7.268;2022-09-09T12:27:42;19.10;99.90
11079;DHT22;5592;49.234;7.268;2022-09-09T12:30:11;19.00;99.90
11079;DHT22;5592;49.234;7.268;2022-09-09T12:32:37;19.00;99.90
11079;DHT22;5592;49.234;7.268;2022-09-09T12:35:10;18.80;99.90
11079;DHT22;5592;49.234;7.268;2022-09-09T12:37:40;18.70;99.90
11079;DHT22;5592;49.234;7.268;2022-09-09T12:42:47;18.50;99.90
11079;DHT22;5592;49.234;7.268;2022-09-09T12:45:24;18.40;99.90
11079;DHT22;5592;49.234;7.268;2022-09-09T12:50:22;19.70;99.90
11079;DHT22;5592;49.234;7.268;2022-09-09T12:52:50;20.40;99.90
11079;DHT22;5592;49.234;7.268;2022-09-09T12:55:21;20.70;99.90
11079;DHT22;5592;49.234;7.268;2022-09-09T12:57:51;20.70;99.90
11079;DHT22;5592;49.234;7.268;2022-09-09T13:00:21;20.60;99.90
11079;DHT22;5592;49.234;7.268;2022-09-09T13:02:51;20.30;99.90
11079;DHT22;5592;49.234;7.268;2022-09-09T13:05:26;19.90;99.90
11079;DHT22;5592;49.234;7.268;2022-09-09T13:08:06;19.80;99.90
11079;DHT22;5592;49.234;7.268;2022-09-09T13:13:15;19.80;99.90
11079;DHT22;5592;49.234;7.268;2022-09-09T13:15:50;19.90;99.90
11079;DHT22;5592;49.234;7.268;2022-09-09T13:18:20;19.90;99.90
11079;DHT22;5592;49.234;7.268;2022-09-09T13:20:50;19.80;99.90
11079;DHT22;5592;49.234;7.268;2022-09-09T13:23:18;19.90;99.90
11079;DHT22;5592;49.234;7.268;2022-09-09T13:25:59;19.70;99.90
11079;DHT22;5592;49.234;7.268;2022-09-09T13:28:27;19.80;99.90
11079;DHT22;5592;49.234;7.268;2022-09-09T13:31:00;19.80;99.90
11079;DHT22;5592;49.234;7.268;2022-09-09T13:33:37;19.70;99.90
11079;DHT22;5592;49.234;7.268;2022-09-09T13:38:35;19.40;99.90
11079;DHT22;5592;49.234;7.268;2022-09-09T13:41:06;19.20;99.90
11079;DHT22;5592;49.234;7.268;2022-09-09T13:43:44;18.90;99.90
11079;DHT22;5592;49.234;7.268;2022-09-09T13:49:22;18.80;99.90
11079;DHT22;5592;49.234;7.268;2022-09-09T13:51:49;18.60;99.90
11079;DHT22;5592;49.234;7.268;2022-09-09T13:54:18;18.70;99.90
11079;DHT22;5592;49.234;7.268;2022-09-09T13:56:44;19.00;99.90
11079;DHT22;5592;49.234;7.268;2022-09-09T13:59:15;19.20;99.90
11079;DHT22;5592;49.234;7.268;2022-09-09T14:01:41;19.50;99.90
11079;DHT22;5592;49.234;7.268;2022-09-09T14:04:07;19.70;99.90
11079;DHT22;5592;49.234;7.268;2022-09-09T14:06:34;20.00;99.90
11079;DHT22;5592;49.234;7.268;2022-09-09T14:09:02;19.80;99.90
11079;DHT22;5592;49.234;7.268;2022-09-09T14:11:28;19.80;99.90
11079;DHT22;5592;49.234;7.268;2022-09-09T14:13:54;19.90;99.90
11079;DHT22;5592;49.234;7.268;2022-09-09T14:16:19;20.00;99.90
11079;DHT22;5592;49.234;7.268;2022-09-09T14:18:46;20.30;99.90
11079;DHT22;5592;49.234;7.268;2022-09-09T14:21:12;20.30;99.90
11079;DHT22;5592;49.234;7.268;2022-09-09T14:23:38;20.10;99.90
11079;DHT22;5592;49.234;7.268;2022-09-09T14:26:08;19.80;99.90
11079;DHT22;5592;49.234;7.268;2022-09-09T14:28:35;19.70;99.90
11079;DHT22;5592;49.234;7.268;2022-09-09T14:31:02;19.60;99.90
11079;DHT22;5592;49.234;7.268;2022-09-09T14:33:28;19.40;99.90
11079;DHT22;5592;49.234;7.268;2022-09-09T14:36:00;19.20;99.90
11079;DHT22;5592;49.234;7.268;2022-09-09T14:38:31;19.30;99.90
11079;DHT22;5592;49.234;7.268;2022-09-09T14:40:57;19.10;99.90
11079;DHT22;5592;49.234;7.268;2022-09-09T14:43:26;19.10;99.90
11079;DHT22;5592;49.234;7.268;2022-09-09T14:45:53;19.20;99.90
11079;DHT22;5592;49.234;7.268;2022-09-09T14:48:18;19.30;99.90
11079;DHT22;5592;49.234;7.268;2022-09-09T14:50:44;19.40;99.90
11079;DHT22;5592;49.234;7.268;2022-09-09T14:53:10;19.50;99.90
11079;DHT22;5592;49.234;7.268;2022-09-09T14:55:36;19.60;99.90
11079;DHT22;5592;49.234;7.268;2022-09-09T14:58:03;19.40;99.90
11079;DHT22;5592;49.234;7.268;2022-09-09T15:00:29;19.10;99.90
11079;DHT22;5592;49.234;7.268;2022-09-09T15:02:55;18.70;99.90
11079;DHT22;5592;49.234;7.268;2022-09-09T15:05:21;18.60;99.90
11079;DHT22;5592;49.234;7.268;2022-09-09T15:07:47;18.80;99.90
11079;DHT22;5592;49.234;7.268;2022-09-09T15:10:14;19.00;99.90
11079;DHT22;5592;49.234;7.268;2022-09-09T15:12:40;19.10;99.90
11079;DHT22;5592;49.234;7.268;2022-09-09T15:15:07;19.40;99.90
11079;DHT22;5592;49.234;7.268;2022-09-09T15:17:36;19.50;99.90
11079;DHT22;5592;49.234;7.268;2022-09-09T15:20:06;19.70;99.90
11079;DHT22;5592;49.234;7.268;2022-09-09T15:22:32;19.80;99.90
11079;DHT22;5592;49.234;7.268;2022-09-09T15:24:57;19.60;99.90
11079;DHT22;5592;49.234;7.268;2022-09-09T15:27:23;19.60;99.90
11079;DHT22;5592;49.234;7.268;2022-09-09T15:29:49;19.60;99.90
11079;DHT22;5592;49.234;7.268;2022-09-09T15:32:16;19.50;99.90
11079;DHT22;5592;49.234;7.268;2022-09-09T15:34:42;19.40;99.90
11079;DHT22;5592;49.234;7.268;2022-09-09T15:37:10;19.50;99.90
11079;DHT22;5592;49.234;7.268;2022-09-09T15:39:36;19.50;99.90
11079;DHT22;5592;49.234;7.268;2022-09-09T15:42:04;19.40;99.90
11079;DHT22;5592;49.234;7.268;2022-09-09T15:44:30;19.10;99.90
11079;DHT22;5592;49.234;7.268;2022-09-09T15:47:03;19.10;99.90
11079;DHT22;5592;49.234;7.268;2022-09-09T15:49:28;19.10;99.90
11079;DHT22;5592;49.234;7.268;2022-09-09T15:51:56;19.00;99.90
11079;DHT22;5592;49.234;7.268;2022-09-09T15:54:23;18.90;99.90
11079;DHT22;5592;49.234;7.268;2022-09-09T15:57:01;18.90;99.90
11079;DHT22;5592;49.234;7.268;2022-09-09T15:59:28;18.90;99.90
11079;DHT22;5592;49.234;7.268;2022-09-09T16:01:55;18.80;99.90
11079;DHT22;5592;49.234;7.268;2022-09-09T16:04:22;18.80;99.90
11079;DHT22;5592;49.234;7.268;2022-09-09T16:06:56;18.70;99.90
11079;DHT22;5592;49.234;7.268;2022-09-09T16:09:23;18.70;99.90
11079;DHT22;5592;49.234;7.268;2022-09-09T16:11:49;18.70;99.90
11079;DHT22;5592;49.234;7.268;2022-09-09T16:14:15;18.60;99.90
11079;DHT22;5592;49.234;7.268;2022-09-09T16:16:42;18.60;99.90
11079;DHT22;5592;49.234;7.268;2022-09-09T16:19:10;18.60;99.90
11079;DHT22;5592;49.234;7.268;2022-09-09T16:21:40;18.60;99.90
11079;DHT22;5592;49.234;7.268;2022-09-09T16:24:08;18.60;99.90
11079;DHT22;5592;49.234;7.268;2022-09-09T16:26:35;18.60;99.90
11079;DHT22;5592;49.234;7.268;2022-09-09T16:29:01;18.40;99.90
11079;DHT22;5592;49.234;7.268;2022-09-09T16:31:31;18.10;99.90
11079;DHT22;5592;49.234;7.268;2022-09-09T16:33:59;17.70;99.90
11079;DHT22;5592;49.234;7.268;2022-09-09T16:36:29;17.30;99.90
11079;DHT22;5592;49.234;7.268;2022-09-09T16:38:57;16.80;99.90
11079;DHT22;5592;49.234;7.268;2022-09-09T16:41:24;16.50;99.90
11079;DHT22;5592;49.234;7.268;2022-09-09T16:43:55;15.90;99.90
11079;DHT22;5592;49.234;7.268;2022-09-09T16:46:24;15.60;99.90
11079;DHT22;5592;49.234;7.268;2022-09-09T16:48:51;15.30;99.90
11079;DHT22;5592;49.234;7.268;2022-09-09T16:51:19;15.20;99.90
11079;DHT22;5592;49.234;7.268;2022-09-09T16:53:45;15.10;99.90
11079;DHT22;5592;49.234;7.268;2022-09-09T16:56:13;15.00;99.90
11079;DHT22;5592;49.234;7.268;2022-09-09T16:58:39;14.90;99.90
11079;DHT22;5592;49.234;7.268;2022-09-09T17:01:05;14.90;99.90
11079;DHT22;5592;49.234;7.268;2022-09-09T17:03:32;15.00;99.90
11079;DHT22;5592;49.234;7.268;2022-09-09T17:05:58;15.10;99.90
11079;DHT22;5592;49.234;7.268;2022-09-09T17:08:30;15.20;99.90
11079;DHT22;5592;49.234;7.268;2022-09-09T17:10:56;15.30;99.90
11079;DHT22;5592;49.234;7.268;2022-09-09T17:13:22;15.40;99.90
11079;DHT22;5592;49.234;7.268;2022-09-09T17:15:48;15.40;99.90
11079;DHT22;5592;49.234;7.268;2022-09-09T17:18:14;15.40;99.90
11079;DHT22;5592;49.234;7.268;2022-09-09T17:20:41;15.50;99.90
11079;DHT22;5592;49.234;7.268;2022-09-09T17:23:08;15.50;99.90
11079;DHT22;5592;49.234;7.268;2022-09-09T17:25:34;15.50;99.90
11079;DHT22;5592;49.234;7.268;2022-09-09T17:28:00;15.50;99.90
11079;DHT22;5592;49.234;7.268;2022-09-09T17:30:27;15.50;99.90
11079;DHT22;5592;49.234;7.268;2022-09-09T17:32:53;15.50;99.90
11079;DHT22;5592;49.234;7.268;2022-09-09T17:35:19;15.40;99.90
11079;DHT22;5592;49.234;7.268;2022-09-09T17:37:44;15.40;99.90
11079;DHT22;5592;49.234;7.268;2022-09-09T17:40:10;15.40;99.90
11079;DHT22;5592;49.234;7.268;2022-09-09T17:42:36;15.30;99.90
11079;DHT22;5592;49.234;7.268;2022-09-09T17:45:02;15.30;99.90
11079;DHT22;5592;49.234;7.268;2022-09-09T17:47:28;15.40;99.90
11079;DHT22;5592;49.234;7.268;2022-09-09T17:49:56;15.30;99.90
11079;DHT22;5592;49.234;7.268;2022-09-09T17:52:21;15.20;99.90
11079;DHT22;5592;49.234;7.268;2022-09-09T17:54:48;15.20;99.90
11079;DHT22;5592;49.234;7.268;2022-09-09T17:57:15;15.10;99.90
11079;DHT22;5592;49.234;7.268;2022-09-09T17:59:42;15.00;99.90
11079;DHT22;5592;49.234;7.268;2022-09-09T18:02:10;15.00;99.90
11079;DHT22;5592;49.234;7.268;2022-09-09T18:04:36;14.90;99.90
11079;DHT22;5592;49.234;7.268;2022-09-09T18:07:02;14.90;99.90
11079;DHT22;5592;49.234;7.268;2022-09-09T18:09:28;14.90;99.90
11079;DHT22;5592;49.234;7.268;2022-09-09T18:11:56;14.90;99.90